createdAt,value
2022-11-25T00:01:29.597Z,10.05
2022-11-25T00:03:58.256Z,8.50
2022-11-25T00:06:34.289Z,4.43
2022-11-25T00:09:09.839Z,5.28
2022-11-25T00:11:39.534Z,4.25
2022-11-25T00:14:08.562Z,6.90
2022-11-25T00:16:35.369Z,4.35
2022-11-25T00:19:02.177Z,5.95
2022-11-25T00:21:33.454Z,3.63
2022-11-25T00:24:03.882Z,7.13
2022-11-25T00:26:32.929Z,3.15
2022-11-25T00:29:03.293Z,4.07
2022-11-25T00:31:34.901Z,3.95
2022-11-25T00:34:02.353Z,3.78
2022-11-25T00:36:32.633Z,4.80
2022-11-25T00:39:10.960Z,5.30
2022-11-25T00:41:56.797Z,3.22
2022-11-25T00:44:42.268Z,3.10
2022-11-25T00:47:20.310Z,3.13
2022-11-25T00:49:53.568Z,4.25
2022-11-25T00:52:24.095Z,5.68
2022-11-25T00:54:51.987Z,9.00
2022-11-25T00:57:22.014Z,4.43
2022-11-25T00:59:49.050Z,5.10
2022-11-25T01:02:17.932Z,4.20
2022-11-25T01:04:45.454Z,4.63
2022-11-25T01:07:12.424Z,5.55
2022-11-25T01:09:39.224Z,4.32
2022-11-25T01:12:06.625Z,3.58
2022-11-25T01:14:33.819Z,4.50
2022-11-25T01:17:00.865Z,2.05
2022-11-25T01:19:28.341Z,7.15
2022-11-25T01:21:55.126Z,3.10
2022-11-25T01:24:23.935Z,6.70
2022-11-25T01:26:51.154Z,4.13
2022-11-25T01:29:19.517Z,3.13
2022-11-25T01:31:48.441Z,5.03
2022-11-25T01:34:19.767Z,5.15
2022-11-25T01:36:47.003Z,6.13
2022-11-25T01:39:24.340Z,3.55
2022-11-25T01:41:53.813Z,3.83
2022-11-25T01:44:28.075Z,4.35
2022-11-25T01:47:17.090Z,4.25
2022-11-25T01:49:49.710Z,3.08
2022-11-25T01:52:29.674Z,3.10
2022-11-25T01:55:09.293Z,7.30
2022-11-25T01:57:44.687Z,7.53
2022-11-25T02:00:12.822Z,3.05
2022-11-25T02:02:40.106Z,9.35
2022-11-25T02:05:10.964Z,5.82
2022-11-25T02:07:44.439Z,4.45
2022-11-25T02:10:27.661Z,2.88
2022-11-25T02:12:54.672Z,7.88
2022-11-25T02:15:22.925Z,3.75
2022-11-25T02:17:50.082Z,4.50
2022-11-25T02:20:20.576Z,4.47
2022-11-25T02:22:52.244Z,5.97
2022-11-25T02:25:23.560Z,7.00
2022-11-25T02:28:03.685Z,4.78
2022-11-25T02:30:30.635Z,5.28
2022-11-25T02:33:00.234Z,5.07
2022-11-25T02:35:37.609Z,6.38
2022-11-25T02:38:43.093Z,3.75
2022-11-25T02:41:16.978Z,6.05
2022-11-25T02:43:43.924Z,4.15
2022-11-25T02:46:22.498Z,4.95
2022-11-25T02:49:09.245Z,5.45
2022-11-25T02:51:40.545Z,3.85
2022-11-25T02:54:07.752Z,8.38
2022-11-25T02:56:36.905Z,7.55
2022-11-25T02:59:05.100Z,4.78
2022-11-25T03:01:32.750Z,3.33
2022-11-25T03:03:59.902Z,5.18
2022-11-25T03:06:27.140Z,5.07
2022-11-25T03:08:54.162Z,6.13
2022-11-25T03:11:20.895Z,7.30
2022-11-25T03:13:47.674Z,3.30
2022-11-25T03:16:14.494Z,7.22
2022-11-25T03:18:41.279Z,3.30
2022-11-25T03:21:08.022Z,4.70
2022-11-25T03:23:34.770Z,4.45
2022-11-25T03:26:06.919Z,11.88
2022-11-25T03:28:33.710Z,2.75
2022-11-25T03:31:00.456Z,4.00
2022-11-25T03:33:27.193Z,3.35
2022-11-25T03:35:53.920Z,4.50
2022-11-25T03:38:20.650Z,2.95
2022-11-25T03:40:48.029Z,3.63
2022-11-25T03:43:14.776Z,5.05
2022-11-25T03:45:41.570Z,5.03
2022-11-25T03:48:08.351Z,3.10
2022-11-25T03:50:35.180Z,2.88
2022-11-25T03:53:01.947Z,3.90
2022-11-25T03:55:28.810Z,3.67
2022-11-25T03:57:55.596Z,3.47
2022-11-25T04:00:22.513Z,3.60
2022-11-25T04:02:49.359Z,3.33
2022-11-25T04:05:16.227Z,5.32
2022-11-25T04:07:43.054Z,4.30
2022-11-25T04:10:10.731Z,4.25
2022-11-25T04:12:46.844Z,4.35
2022-11-25T04:15:16.329Z,5.22
2022-11-25T04:17:43.697Z,6.10
2022-11-25T04:20:12.893Z,3.92
2022-11-25T04:22:39.774Z,3.47
2022-11-25T04:25:07.606Z,3.83
2022-11-25T04:27:34.317Z,4.05
2022-11-25T04:30:01.117Z,3.67
2022-11-25T04:32:27.941Z,7.72
2022-11-25T04:34:54.826Z,3.65
2022-11-25T04:37:21.868Z,5.45
2022-11-25T04:39:48.837Z,7.28
2022-11-25T04:42:34.490Z,3.45
2022-11-25T04:47:52.724Z,3.58
2022-11-25T04:50:22.910Z,4.50
2022-11-25T04:52:50.284Z,5.10
2022-11-25T04:55:20.234Z,9.38
2022-11-25T04:57:46.945Z,3.15
2022-11-25T05:00:14.356Z,5.65
2022-11-25T05:02:42.035Z,5.45
2022-11-25T05:05:09.095Z,8.73
2022-11-25T05:07:36.030Z,3.60
2022-11-25T05:10:03.280Z,6.93
2022-11-25T05:12:30.241Z,6.03
2022-11-25T05:14:57.740Z,3.40
2022-11-25T05:17:30.655Z,6.15
2022-11-25T05:19:57.937Z,5.00
2022-11-25T05:22:31.198Z,3.70
2022-11-25T05:24:58.741Z,5.88
2022-11-25T05:27:26.769Z,4.30
2022-11-25T05:29:56.247Z,4.25
2022-11-25T05:32:23.586Z,3.30
2022-11-25T05:34:50.438Z,3.60
2022-11-25T05:37:21.267Z,3.92
2022-11-25T05:39:51.125Z,10.07
2022-11-25T05:42:17.949Z,3.92
2022-11-25T05:44:44.841Z,5.15
2022-11-25T05:47:11.609Z,4.78
2022-11-25T05:49:38.330Z,4.95
2022-11-25T05:52:05.293Z,3.88
2022-11-25T05:54:32.026Z,4.07
2022-11-25T05:56:59.112Z,2.65
2022-11-25T05:59:25.846Z,4.38
2022-11-25T06:01:55.244Z,3.47
2022-11-25T06:04:22.103Z,2.63
2022-11-25T06:06:49.009Z,3.58
2022-11-25T06:09:15.791Z,8.02
2022-11-25T06:11:42.576Z,7.47
2022-11-25T06:14:09.352Z,5.10
2022-11-25T06:16:36.121Z,4.32
2022-11-25T06:19:06.861Z,5.00
2022-11-25T06:21:33.716Z,6.35
2022-11-25T06:24:00.878Z,4.38
2022-11-25T06:26:27.629Z,6.38
2022-11-25T06:28:56.204Z,6.22
2022-11-25T06:31:25.951Z,4.97
2022-11-25T06:33:55.486Z,9.07
2022-11-25T06:36:23.133Z,5.57
2022-11-25T06:38:54.313Z,8.60
2022-11-25T06:41:22.639Z,4.35
2022-11-25T06:43:50.359Z,10.23
2022-11-25T06:46:24.893Z,4.32
2022-11-25T06:48:53.983Z,5.00
2022-11-25T06:51:21.125Z,5.72
2022-11-25T06:53:47.927Z,6.50
2022-11-25T06:56:19.595Z,7.22
2022-11-25T06:58:48.503Z,7.03
2022-11-25T07:01:25.083Z,7.20
2022-11-25T07:03:55.276Z,3.45
2022-11-25T07:06:22.879Z,8.55
2022-11-25T07:08:50.294Z,9.95
2022-11-25T07:11:27.419Z,6.28
2022-11-25T07:13:58.187Z,3.78
2022-11-25T07:16:25.811Z,7.15
2022-11-25T07:18:53.034Z,4.25
2022-11-25T07:21:25.409Z,3.80
2022-11-25T07:23:53.169Z,7.85
2022-11-25T07:26:27.919Z,4.07
2022-11-25T07:28:58.666Z,5.85
2022-11-25T07:31:40.873Z,7.13
2022-11-25T07:34:17.918Z,3.83
2022-11-25T07:36:45.560Z,6.47
2022-11-25T07:39:19.377Z,8.00
2022-11-25T07:41:49.806Z,6.25
2022-11-25T07:44:17.579Z,8.05
2022-11-25T07:46:49.090Z,23.48
2022-11-25T07:49:22.754Z,29.73
2022-11-25T07:51:56.828Z,15.32
2022-11-25T07:54:24.779Z,16.27
2022-11-25T07:56:51.904Z,10.80
2022-11-25T07:59:21.924Z,9.68
2022-11-25T08:01:54.296Z,8.32
2022-11-25T08:04:21.962Z,7.57
2022-11-25T08:06:52.166Z,3.80
2022-11-25T08:09:22.343Z,7.95
2022-11-25T08:11:49.787Z,5.60
2022-11-25T08:14:17.703Z,11.65
2022-11-25T08:16:45.492Z,3.55
2022-11-25T08:19:16.348Z,6.93
2022-11-25T08:21:43.584Z,5.57
2022-11-25T08:24:16.421Z,5.18
2022-11-25T08:29:15.222Z,7.57
2022-11-25T08:31:43.211Z,4.47
2022-11-25T08:34:19.973Z,9.10
2022-11-25T08:36:48.839Z,9.50
2022-11-25T08:42:06.425Z,8.73
2022-11-25T08:44:33.368Z,9.90
2022-11-25T08:47:00.278Z,15.60
2022-11-25T08:49:29.324Z,16.05
2022-11-25T08:51:56.231Z,18.17
2022-11-25T08:54:23.018Z,17.02
2022-11-25T08:56:49.804Z,14.73
2022-11-25T08:59:16.759Z,18.80
2022-11-25T09:01:44.314Z,13.13
2022-11-25T09:04:11.528Z,7.18
2022-11-25T09:06:39.340Z,11.85
2022-11-25T09:09:06.901Z,12.25
2022-11-25T09:11:33.809Z,10.52
2022-11-25T09:14:00.691Z,9.32
2022-11-25T09:16:28.450Z,11.07
2022-11-25T09:18:56.340Z,12.30
2022-11-25T09:21:25.235Z,15.93
2022-11-25T09:23:54.142Z,9.45
2022-11-25T09:26:26.936Z,9.82
2022-11-25T09:28:55.152Z,35.97
2022-11-25T09:31:22.991Z,14.10
2022-11-25T09:33:50.904Z,16.77
2022-11-25T09:36:20.429Z,10.88
2022-11-25T09:38:47.585Z,17.35
2022-11-25T09:42:07.649Z,20.00
2022-11-25T09:45:22.177Z,30.75
2022-11-25T09:48:13.898Z,22.30
2022-11-25T09:51:17.638Z,29.30
2022-11-25T09:54:08.244Z,27.95
2022-11-25T09:56:42.010Z,15.95
2022-11-25T09:59:32.471Z,23.75
2022-11-25T10:02:09.723Z,16.00
2022-11-25T10:05:03.884Z,22.35
2022-11-25T10:07:53.335Z,15.18
2022-11-25T10:10:31.023Z,7.97
2022-11-25T10:12:59.669Z,13.20
2022-11-25T10:15:40.973Z,9.57
2022-11-25T10:18:19.398Z,7.60
2022-11-25T10:20:49.693Z,14.38
2022-11-25T10:23:28.055Z,8.23
2022-11-25T10:26:03.633Z,7.68
2022-11-25T10:28:35.226Z,12.35
2022-11-25T10:31:11.134Z,8.13
2022-11-25T10:33:54.609Z,13.57
2022-11-25T10:36:33.221Z,6.40
2022-11-25T10:39:03.986Z,9.88
2022-11-25T10:42:01.949Z,7.20
2022-11-25T10:44:32.721Z,11.02
2022-11-25T10:47:55.323Z,7.25
2022-11-25T10:50:34.213Z,4.43
2022-11-25T10:53:14.168Z,5.53
2022-11-25T10:55:59.671Z,3.60
2022-11-25T10:58:33.060Z,8.65
2022-11-25T11:01:25.630Z,9.63
2022-11-25T11:04:15.374Z,15.37
2022-11-25T11:06:46.590Z,12.15
2022-11-25T11:09:35.644Z,7.70
2022-11-25T11:12:25.083Z,5.63
2022-11-25T11:15:22.622Z,10.05
2022-11-25T11:17:49.876Z,7.85
2022-11-25T11:20:28.643Z,9.63
2022-11-25T11:23:12.765Z,7.20
2022-11-25T11:25:43.477Z,15.27
2022-11-25T11:28:38.753Z,6.95
2022-11-25T11:31:24.486Z,8.40
2022-11-25T11:34:09.343Z,12.43
2022-11-25T11:36:58.524Z,8.77
2022-11-25T11:39:44.626Z,6.22
2022-11-25T11:42:32.742Z,7.43
2022-11-25T11:45:23.747Z,9.73
2022-11-25T11:48:22.798Z,11.02
2022-11-25T11:51:37.894Z,8.07
2022-11-25T11:54:18.626Z,10.93
2022-11-25T11:57:25.850Z,8.45
2022-11-25T11:59:56.117Z,8.32
2022-11-25T12:02:59.095Z,11.80
2022-11-25T12:05:30.339Z,10.48
2022-11-25T12:08:28.563Z,10.50
2022-11-25T12:11:02.652Z,5.93
2022-11-25T12:14:01.438Z,8.77
2022-11-25T12:16:34.802Z,12.60
2022-11-25T12:19:42.373Z,13.50
2022-11-25T12:22:20.089Z,5.43
2022-11-25T12:25:01.705Z,10.90
2022-11-25T12:27:42.815Z,7.75
2022-11-25T12:30:18.335Z,4.47
2022-11-25T12:33:13.490Z,7.80
2022-11-25T12:35:55.494Z,7.53
2022-11-25T12:38:49.235Z,6.05
2022-11-25T12:41:37.381Z,9.25
2022-11-25T12:44:44.721Z,7.28
2022-11-25T12:47:12.036Z,8.98
2022-11-25T12:49:47.445Z,13.32
2022-11-25T12:52:47.781Z,9.32
2022-11-25T12:55:18.941Z,5.55
2022-11-25T12:58:41.129Z,6.35
2022-11-25T13:01:28.613Z,8.23
2022-11-25T13:04:17.283Z,5.53
2022-11-25T13:07:08.361Z,7.75
2022-11-25T13:09:50.165Z,6.97
2022-11-25T13:12:44.001Z,5.35
2022-11-25T13:15:27.524Z,3.08
2022-11-25T13:18:00.992Z,3.65
2022-11-25T13:20:27.664Z,3.70
2022-11-25T13:23:08.188Z,4.68
2022-11-25T13:25:40.333Z,6.57
2022-11-25T13:28:32.874Z,3.70
2022-11-25T13:31:14.582Z,8.45
2022-11-25T13:33:44.502Z,4.38
2022-11-25T13:36:22.373Z,2.63
2022-11-25T13:38:49.143Z,2.30
2022-11-25T13:41:15.874Z,5.57
2022-11-25T13:44:20.636Z,3.22
2022-11-25T13:46:53.756Z,2.65
2022-11-25T13:49:28.780Z,4.25
2022-11-25T13:52:01.096Z,2.58
2022-11-25T13:54:39.364Z,4.47
2022-11-25T13:57:16.953Z,6.78
2022-11-25T13:59:43.646Z,5.20
2022-11-25T14:02:28.538Z,8.07
2022-11-25T14:04:58.236Z,4.78
2022-11-25T14:07:36.630Z,4.00
2022-11-25T14:10:15.597Z,13.25
2022-11-25T14:13:18.749Z,14.07
2022-11-25T14:16:06.507Z,13.85
2022-11-25T14:19:49.512Z,3.70
2022-11-25T14:22:06.944Z,8.40
2022-11-25T14:24:45.203Z,3.47
2022-11-25T14:27:30.786Z,4.90
2022-11-25T14:30:01.150Z,11.38
2022-11-25T14:32:57.858Z,2.13
2022-11-25T14:35:40.326Z,1.85
2022-11-25T14:38:27.099Z,3.83
2022-11-25T14:41:14.767Z,3.92
2022-11-25T14:43:47.406Z,3.67
2022-11-25T14:46:21.100Z,3.45
2022-11-25T14:49:03.248Z,1.77
2022-11-25T14:51:37.093Z,6.68
2022-11-25T14:54:08.440Z,2.28
2022-11-25T14:56:37.322Z,1.77
2022-11-25T14:59:04.680Z,1.92
2022-11-25T15:01:34.341Z,3.42
2022-11-25T15:04:17.683Z,1.60
2022-11-25T15:06:54.019Z,1.45
2022-11-25T15:09:28.356Z,1.33
2022-11-25T15:12:05.633Z,7.78
2022-11-25T15:14:36.729Z,4.05
2022-11-25T15:17:28.161Z,0.95
2022-11-25T15:19:59.428Z,2.42
2022-11-25T15:22:26.236Z,4.57
2022-11-25T15:24:56.229Z,1.15
2022-11-25T15:27:29.030Z,3.22
2022-11-25T15:29:57.676Z,2.72
2022-11-25T15:32:30.466Z,3.10
2022-11-25T15:35:00.657Z,1.55
2022-11-25T15:37:28.590Z,4.68
2022-11-25T15:40:30.357Z,3.50
2022-11-25T15:43:03.469Z,2.05
2022-11-25T15:45:47.285Z,2.28
2022-11-25T15:48:29.544Z,1.40
2022-11-25T15:51:04.173Z,1.75
2022-11-25T15:53:36.928Z,0.88
2022-11-25T15:56:07.624Z,1.45
2022-11-25T15:58:35.022Z,1.30
2022-11-25T16:01:15.730Z,1.52
2022-11-25T16:03:43.159Z,0.70
2022-11-25T16:06:52.953Z,4.57
2022-11-25T16:09:27.516Z,2.45
2022-11-25T16:11:54.317Z,11.70
2022-11-25T16:14:31.767Z,11.88
2022-11-25T16:17:08.909Z,10.00
2022-11-25T16:19:43.053Z,14.73
2022-11-25T16:22:17.966Z,8.95
2022-11-25T16:25:00.405Z,5.75
2022-11-25T16:27:29.684Z,6.30
2022-11-25T16:30:05.672Z,9.02
2022-11-25T16:32:33.983Z,5.57
2022-11-25T16:35:16.767Z,1.58
2022-11-25T16:37:48.476Z,4.80
2022-11-25T16:40:18.035Z,1.17
2022-11-25T16:42:48.734Z,4.03
2022-11-25T16:45:29.555Z,12.57
2022-11-25T16:47:56.400Z,7.88
2022-11-25T16:50:23.424Z,12.05
2022-11-25T16:52:50.185Z,29.98
2022-11-25T16:55:18.727Z,13.30
2022-11-25T16:57:45.806Z,4.78
2022-11-25T17:00:17.538Z,8.23
2022-11-25T17:02:45.156Z,6.75
2022-11-25T17:05:25.042Z,10.82
2022-11-25T17:07:52.182Z,5.15
2022-11-25T17:10:21.652Z,3.75
2022-11-25T17:12:49.174Z,4.65
2022-11-25T17:15:20.948Z,4.57
2022-11-25T17:17:48.858Z,4.47
2022-11-25T17:20:18.546Z,2.35
2022-11-25T17:22:45.363Z,4.22
2022-11-25T17:25:13.085Z,4.95
2022-11-25T17:27:40.541Z,5.07
2022-11-25T17:30:17.396Z,1.60
2022-11-25T17:32:44.238Z,5.50
2022-11-25T17:35:21.148Z,3.17
2022-11-25T17:37:48.466Z,5.18
2022-11-25T17:40:16.401Z,4.05
2022-11-25T17:42:44.486Z,3.30
2022-11-25T17:45:17.754Z,4.20
2022-11-25T17:47:45.009Z,5.35
2022-11-25T17:50:16.402Z,2.53
2022-11-25T17:52:43.238Z,3.20
2022-11-25T17:55:10.368Z,9.32
2022-11-25T17:57:37.521Z,2.83
2022-11-25T18:00:08.034Z,3.63
2022-11-25T18:02:34.879Z,5.07
2022-11-25T18:05:01.746Z,2.65
2022-11-25T18:07:28.527Z,2.28
2022-11-25T18:09:55.403Z,3.60
2022-11-25T18:12:28.698Z,1.92
2022-11-25T18:14:56.498Z,3.58
2022-11-25T18:17:23.254Z,4.43
2022-11-25T18:19:54.574Z,9.32
2022-11-25T18:22:23.695Z,8.32
2022-11-25T18:24:50.606Z,4.18
2022-11-25T18:27:21.836Z,6.35
2022-11-25T18:29:49.069Z,8.02
2022-11-25T18:32:15.984Z,3.13
2022-11-25T18:34:42.852Z,6.47
2022-11-25T18:37:12.935Z,7.10
2022-11-25T18:39:39.805Z,8.32
2022-11-25T18:42:07.659Z,15.15
2022-11-25T18:44:43.726Z,20.35
2022-11-25T18:47:13.539Z,9.90
2022-11-25T18:49:40.305Z,17.90
2022-11-25T18:52:07.054Z,14.88
2022-11-25T18:54:33.773Z,11.48
2022-11-25T18:57:00.641Z,9.57
2022-11-25T18:59:34.972Z,7.70
2022-11-25T19:02:02.355Z,9.00
2022-11-25T19:04:29.318Z,6.18
2022-11-25T19:06:56.170Z,7.22
2022-11-25T19:09:22.955Z,6.63
2022-11-25T19:11:52.927Z,5.30
2022-11-25T19:14:33.274Z,7.15
2022-11-25T19:17:07.323Z,6.15
2022-11-25T19:19:35.536Z,5.70
2022-11-25T19:22:02.690Z,4.32
2022-11-25T19:24:29.616Z,5.47
2022-11-25T19:26:57.665Z,4.70
2022-11-25T19:29:41.973Z,2.67
2022-11-25T19:32:21.248Z,3.17
2022-11-25T19:34:53.430Z,8.00
2022-11-25T19:37:22.157Z,5.85
2022-11-25T19:39:52.891Z,5.40
2022-11-25T19:42:19.930Z,4.68
2022-11-25T19:44:47.462Z,6.07
2022-11-25T19:47:23.211Z,3.55
2022-11-25T19:49:54.316Z,2.80
2022-11-25T19:52:30.897Z,3.53
2022-11-25T19:54:57.728Z,5.05
2022-11-25T19:57:25.372Z,6.38
2022-11-25T19:59:52.551Z,6.10
2022-11-25T20:02:24.683Z,10.32
2022-11-25T20:04:55.881Z,5.15
2022-11-25T20:07:23.249Z,4.82
2022-11-25T20:09:51.682Z,5.72
2022-11-25T20:12:24.669Z,3.35
2022-11-25T20:14:52.094Z,2.92
2022-11-25T20:17:34.289Z,7.07
2022-11-25T20:20:14.439Z,8.47
2022-11-25T20:22:49.543Z,9.10
2022-11-25T20:25:16.423Z,5.15
2022-11-25T20:27:43.163Z,3.22
2022-11-25T20:30:30.431Z,2.40
2022-11-25T20:32:57.142Z,2.42
2022-11-25T20:35:25.965Z,5.13
2022-11-25T20:37:57.865Z,4.90
2022-11-25T20:40:46.176Z,4.50
2022-11-25T20:43:39.099Z,5.30
2022-11-25T20:46:15.315Z,3.92
2022-11-25T20:48:42.615Z,3.78
2022-11-25T20:51:22.100Z,2.65
2022-11-25T20:53:58.262Z,3.20
2022-11-25T20:56:26.996Z,2.03
2022-11-25T20:58:53.995Z,6.07
2022-11-25T21:01:20.866Z,5.80
2022-11-25T21:03:49.926Z,7.18
2022-11-25T21:06:20.739Z,12.75
2022-11-25T21:08:51.590Z,5.30
2022-11-25T21:11:20.251Z,3.97
2022-11-25T21:13:48.179Z,6.88
2022-11-25T21:16:15.163Z,3.75
2022-11-25T21:18:42.953Z,6.20
2022-11-25T21:21:23.157Z,2.58
2022-11-25T21:23:49.988Z,2.42
2022-11-25T21:26:25.883Z,3.78
2022-11-25T21:28:54.099Z,4.75
2022-11-25T21:31:26.273Z,2.47
2022-11-25T21:33:59.222Z,3.97
2022-11-25T21:36:29.654Z,2.58
2022-11-25T21:39:04.558Z,4.53
2022-11-25T21:41:31.488Z,3.97
2022-11-25T21:43:58.249Z,3.83
2022-11-25T21:46:25.875Z,3.22
2022-11-25T21:48:53.125Z,3.60
2022-11-25T21:51:24.431Z,2.45
2022-11-25T21:53:52.747Z,3.55
2022-11-25T21:56:29.237Z,3.65
2022-11-25T21:58:58.862Z,5.70
2022-11-25T22:01:25.713Z,5.18
2022-11-25T22:03:52.515Z,4.07
2022-11-25T22:06:23.749Z,8.38
2022-11-25T22:08:50.703Z,4.60
2022-11-25T22:11:31.794Z,5.63
2022-11-25T22:14:01.201Z,2.72
2022-11-25T22:16:34.837Z,5.85
2022-11-25T22:19:01.952Z,5.07
2022-11-25T22:21:28.692Z,7.35
2022-11-25T22:23:55.503Z,4.60
2022-11-25T22:26:40.386Z,8.48
2022-11-25T22:29:14.911Z,4.10
2022-11-25T22:31:43.026Z,9.70
2022-11-25T22:34:22.579Z,6.88
2022-11-25T22:36:51.033Z,3.83
2022-11-25T22:39:26.586Z,6.05
2022-11-25T22:42:25.441Z,5.53
2022-11-25T22:44:53.329Z,6.05
2022-11-25T22:47:43.205Z,18.88
2022-11-25T22:50:26.984Z,6.47
2022-11-25T22:52:54.772Z,4.50
2022-11-25T22:55:24.224Z,7.18
2022-11-25T22:57:53.607Z,4.07
2022-11-25T23:00:28.138Z,12.98
2022-11-25T23:02:58.343Z,6.70
2022-11-25T23:05:34.300Z,5.03
2022-11-25T23:08:26.485Z,5.93
2022-11-25T23:10:54.305Z,3.78
2022-11-25T23:13:21.697Z,5.15
2022-11-25T23:15:55.369Z,6.45
2022-11-25T23:18:38.768Z,5.25
2022-11-25T23:21:10.009Z,2.50
2022-11-25T23:23:36.753Z,11.95
2022-11-25T23:26:03.482Z,4.50
2022-11-25T23:28:30.221Z,6.60
2022-11-25T23:30:59.086Z,8.20
2022-11-25T23:33:49.801Z,6.65
2022-11-25T23:36:40.339Z,5.57
2022-11-25T23:39:23.392Z,5.82
2022-11-25T23:44:30.905Z,4.07
2022-11-25T23:47:07.850Z,5.25
2022-11-25T23:49:39.472Z,3.90
2022-11-25T23:52:08.856Z,4.13
2022-11-25T23:54:41.198Z,4.63
2022-11-25T23:57:23.655Z,4.82
2022-11-25T23:59:51.738Z,3.88
